sensor_id;sensor_type;location;lat;lon;timestamp;P1;durP1;ratioP1;P2;durP2;ratioP2
25780;SDS011;13626;48.128;11.628;2024-01-15T00:00:39;7.60;;;3.92;;
25780;SDS011;13626;48.128;11.628;2024-01-15T00:03:07;8.68;;;3.95;;
25780;SDS011;13626;48.128;11.628;2024-01-15T00:05:34;7.28;;;3.85;;
25780;SDS011;13626;48.128;11.628;2024-01-15T00:08:01;7.30;;;3.42;;
25780;SDS011;13626;48.128;11.628;2024-01-15T00:10:29;9.57;;;3.78;;
25780;SDS011;13626;48.128;11.628;2024-01-15T00:12:56;7.60;;;3.95;;
25780;SDS011;13626;48.128;11.628;2024-01-15T00:15:23;9.32;;;4.32;;
25780;SDS011;13626;48.128;11.628;2024-01-15T00:17:51;8.35;;;3.85;;
25780;SDS011;13626;48.128;11.628;2024-01-15T00:20:18;9.75;;;3.95;;
25780;SDS011;13626;48.128;11.628;2024-01-15T00:22:45;9.35;;;4.70;;
25780;SDS011;13626;48.128;11.628;2024-01-15T00:25:13;8.77;;;4.68;;
25780;SDS011;13626;48.128;11.628;2024-01-15T00:27:40;9.70;;;4.45;;
25780;SDS011;13626;48.128;11.628;2024-01-15T00:30:08;10.43;;;4.82;;
25780;SDS011;13626;48.128;11.628;2024-01-15T00:32:36;10.88;;;4.68;;
25780;SDS011;13626;48.128;11.628;2024-01-15T00:35:03;10.65;;;5.20;;
25780;SDS011;13626;48.128;11.628;2024-01-15T00:37:31;10.48;;;5.07;;
25780;SDS011;13626;48.128;11.628;2024-01-15T00:39:58;10.45;;;5.07;;
25780;SDS011;13626;48.128;11.628;2024-01-15T00:42:26;8.98;;;4.63;;
25780;SDS011;13626;48.128;11.628;2024-01-15T00:44:54;11.73;;;5.35;;
25780;SDS011;13626;48.128;11.628;2024-01-15T00:47:21;10.85;;;5.40;;
25780;SDS011;13626;48.128;11.628;2024-01-15T00:49:48;12.00;;;5.78;;
25780;SDS011;13626;48.128;11.628;2024-01-15T00:52:16;11.82;;;5.28;;
25780;SDS011;13626;48.128;11.628;2024-01-15T00:54:43;9.95;;;4.82;;
25780;SDS011;13626;48.128;11.628;2024-01-15T00:57:10;9.68;;;5.00;;
25780;SDS011;13626;48.128;11.628;2024-01-15T00:59:37;11.75;;;5.68;;
25780;SDS011;13626;48.128;11.628;2024-01-15T01:02:05;8.02;;;4.65;;
25780;SDS011;13626;48.128;11.628;2024-01-15T01:04:32;12.25;;;5.22;;
25780;SDS011;13626;48.128;11.628;2024-01-15T01:07:00;9.77;;;5.30;;
25780;SDS011;13626;48.128;11.628;2024-01-15T01:09:27;11.95;;;5.68;;
25780;SDS011;13626;48.128;11.628;2024-01-15T01:11:56;10.93;;;5.18;;
25780;SDS011;13626;48.128;11.628;2024-01-15T01:14:23;14.90;;;6.30;;
25780;SDS011;13626;48.128;11.628;2024-01-15T01:16:51;14.65;;;6.75;;
25780;SDS011;13626;48.128;11.628;2024-01-15T01:19:18;13.77;;;7.07;;
25780;SDS011;13626;48.128;11.628;2024-01-15T01:21:46;14.80;;;7.32;;
25780;SDS011;13626;48.128;11.628;2024-01-15T01:24:13;14.95;;;7.28;;
25780;SDS011;13626;48.128;11.628;2024-01-15T01:26:41;13.98;;;6.68;;
25780;SDS011;13626;48.128;11.628;2024-01-15T01:29:08;14.32;;;7.00;;
25780;SDS011;13626;48.128;11.628;2024-01-15T01:31:35;16.02;;;7.50;;
25780;SDS011;13626;48.128;11.628;2024-01-15T01:34:03;15.52;;;7.07;;
25780;SDS011;13626;48.128;11.628;2024-01-15T01:36:31;14.63;;;6.65;;
25780;SDS011;13626;48.128;11.628;2024-01-15T01:38:59;14.85;;;6.95;;
25780;SDS011;13626;48.128;11.628;2024-01-15T01:41:26;14.07;;;6.57;;
25780;SDS011;13626;48.128;11.628;2024-01-15T01:43:53;13.80;;;6.35;;
25780;SDS011;13626;48.128;11.628;2024-01-15T01:46:21;16.60;;;6.90;;
25780;SDS011;13626;48.128;11.628;2024-01-15T01:48:48;16.38;;;6.45;;
25780;SDS011;13626;48.128;11.628;2024-01-15T01:51:16;17.45;;;7.22;;
25780;SDS011;13626;48.128;11.628;2024-01-15T01:53:44;14.13;;;6.30;;
25780;SDS011;13626;48.128;11.628;2024-01-15T01:56:11;15.88;;;6.90;;
25780;SDS011;13626;48.128;11.628;2024-01-15T01:58:39;15.20;;;6.85;;
25780;SDS011;13626;48.128;11.628;2024-01-15T02:01:07;13.38;;;6.22;;
25780;SDS011;13626;48.128;11.628;2024-01-15T02:03:35;12.10;;;5.88;;
25780;SDS011;13626;48.128;11.628;2024-01-15T02:06:02;15.43;;;6.95;;
25780;SDS011;13626;48.128;11.628;2024-01-15T02:08:30;14.05;;;6.95;;
25780;SDS011;13626;48.128;11.628;2024-01-15T02:10:57;12.57;;;6.53;;
25780;SDS011;13626;48.128;11.628;2024-01-15T02:13:24;12.57;;;6.93;;
25780;SDS011;13626;48.128;11.628;2024-01-15T02:15:52;11.95;;;5.95;;
25780;SDS011;13626;48.128;11.628;2024-01-15T02:18:19;11.43;;;5.28;;
25780;SDS011;13626;48.128;11.628;2024-01-15T02:20:47;14.13;;;6.28;;
25780;SDS011;13626;48.128;11.628;2024-01-15T02:23:15;14.30;;;5.93;;
25780;SDS011;13626;48.128;11.628;2024-01-15T02:25:43;13.48;;;6.57;;
25780;SDS011;13626;48.128;11.628;2024-01-15T02:28:17;12.65;;;6.15;;
25780;SDS011;13626;48.128;11.628;2024-01-15T02:30:44;17.60;;;7.07;;
25780;SDS011;13626;48.128;11.628;2024-01-15T02:33:12;13.77;;;5.90;;
25780;SDS011;13626;48.128;11.628;2024-01-15T02:35:40;15.20;;;6.22;;
25780;SDS011;13626;48.128;11.628;2024-01-15T02:38:07;15.02;;;6.45;;
25780;SDS011;13626;48.128;11.628;2024-01-15T02:40:35;12.43;;;5.95;;
25780;SDS011;13626;48.128;11.628;2024-01-15T02:43:02;14.18;;;6.45;;
25780;SDS011;13626;48.128;11.628;2024-01-15T02:45:30;14.13;;;6.05;;
25780;SDS011;13626;48.128;11.628;2024-01-15T02:47:57;12.68;;;6.15;;
25780;SDS011;13626;48.128;11.628;2024-01-15T02:50:26;14.30;;;6.55;;
25780;SDS011;13626;48.128;11.628;2024-01-15T02:52:53;14.00;;;6.30;;
25780;SDS011;13626;48.128;11.628;2024-01-15T02:55:20;16.45;;;6.93;;
25780;SDS011;13626;48.128;11.628;2024-01-15T02:57:48;17.48;;;6.40;;
25780;SDS011;13626;48.128;11.628;2024-01-15T03:00:15;12.93;;;5.70;;
25780;SDS011;13626;48.128;11.628;2024-01-15T03:02:44;13.52;;;6.30;;
25780;SDS011;13626;48.128;11.628;2024-01-15T03:05:14;13.55;;;5.82;;
25780;SDS011;13626;48.128;11.628;2024-01-15T03:07:41;12.95;;;6.28;;
25780;SDS011;13626;48.128;11.628;2024-01-15T03:10:09;13.40;;;6.30;;
25780;SDS011;13626;48.128;11.628;2024-01-15T03:12:36;13.73;;;6.40;;
25780;SDS011;13626;48.128;11.628;2024-01-15T03:15:04;13.85;;;6.07;;
25780;SDS011;13626;48.128;11.628;2024-01-15T03:17:31;12.65;;;6.00;;
25780;SDS011;13626;48.128;11.628;2024-01-15T03:19:59;11.88;;;5.45;;
25780;SDS011;13626;48.128;11.628;2024-01-15T03:22:26;14.10;;;5.75;;
25780;SDS011;13626;48.128;11.628;2024-01-15T03:24:54;10.55;;;5.07;;
25780;SDS011;13626;48.128;11.628;2024-01-15T03:27:21;14.32;;;6.30;;
25780;SDS011;13626;48.128;11.628;2024-01-15T03:29:49;12.02;;;5.90;;
25780;SDS011;13626;48.128;11.628;2024-01-15T03:32:16;13.43;;;5.45;;
25780;SDS011;13626;48.128;11.628;2024-01-15T03:34:43;13.02;;;5.85;;
25780;SDS011;13626;48.128;11.628;2024-01-15T03:37:11;10.90;;;5.53;;
25780;SDS011;13626;48.128;11.628;2024-01-15T03:39:38;10.95;;;4.90;;
25780;SDS011;13626;48.128;11.628;2024-01-15T03:42:06;10.10;;;4.88;;
25780;SDS011;13626;48.128;11.628;2024-01-15T03:44:33;10.82;;;4.95;;
25780;SDS011;13626;48.128;11.628;2024-01-15T03:47:00;11.05;;;5.13;;
25780;SDS011;13626;48.128;11.628;2024-01-15T03:49:28;12.52;;;6.53;;
25780;SDS011;13626;48.128;11.628;2024-01-15T03:51:55;10.90;;;6.03;;
25780;SDS011;13626;48.128;11.628;2024-01-15T03:54:22;11.32;;;5.70;;
25780;SDS011;13626;48.128;11.628;2024-01-15T03:56:50;11.00;;;5.40;;
25780;SDS011;13626;48.128;11.628;2024-01-15T03:59:17;12.82;;;5.80;;
25780;SDS011;13626;48.128;11.628;2024-01-15T04:01:48;12.45;;;5.38;;
25780;SDS011;13626;48.128;11.628;2024-01-15T04:04:16;9.90;;;4.95;;
25780;SDS011;13626;48.128;11.628;2024-01-15T04:06:43;12.77;;;4.75;;
25780;SDS011;13626;48.128;11.628;2024-01-15T04:09:14;11.00;;;5.25;;
25780;SDS011;13626;48.128;11.628;2024-01-15T04:11:41;9.85;;;5.63;;
25780;SDS011;13626;48.128;11.628;2024-01-15T04:14:08;12.65;;;5.45;;
25780;SDS011;13626;48.128;11.628;2024-01-15T04:16:37;12.55;;;5.22;;
25780;SDS011;13626;48.128;11.628;2024-01-15T04:19:04;10.43;;;5.18;;
25780;SDS011;13626;48.128;11.628;2024-01-15T04:21:31;11.63;;;5.80;;
25780;SDS011;13626;48.128;11.628;2024-01-15T04:23:59;9.90;;;5.05;;
25780;SDS011;13626;48.128;11.628;2024-01-15T04:26:26;9.38;;;4.90;;
25780;SDS011;13626;48.128;11.628;2024-01-15T04:28:53;12.27;;;5.18;;
25780;SDS011;13626;48.128;11.628;2024-01-15T04:31:22;11.20;;;5.35;;
25780;SDS011;13626;48.128;11.628;2024-01-15T04:33:49;12.65;;;5.05;;
25780;SDS011;13626;48.128;11.628;2024-01-15T04:36:17;9.82;;;4.85;;
25780;SDS011;13626;48.128;11.628;2024-01-15T04:38:44;10.98;;;5.05;;
25780;SDS011;13626;48.128;11.628;2024-01-15T04:41:12;10.13;;;4.68;;
25780;SDS011;13626;48.128;11.628;2024-01-15T04:43:39;9.55;;;5.22;;
25780;SDS011;13626;48.128;11.628;2024-01-15T04:46:07;9.45;;;5.40;;
25780;SDS011;13626;48.128;11.628;2024-01-15T04:48:34;9.45;;;4.40;;
25780;SDS011;13626;48.128;11.628;2024-01-15T04:51:03;9.00;;;4.65;;
25780;SDS011;13626;48.128;11.628;2024-01-15T04:53:31;9.15;;;4.78;;
25780;SDS011;13626;48.128;11.628;2024-01-15T04:55:58;10.35;;;4.82;;
25780;SDS011;13626;48.128;11.628;2024-01-15T04:58:26;11.20;;;5.28;;
25780;SDS011;13626;48.128;11.628;2024-01-15T05:00:53;8.43;;;4.53;;
25780;SDS011;13626;48.128;11.628;2024-01-15T05:03:21;8.82;;;4.55;;
25780;SDS011;13626;48.128;11.628;2024-01-15T05:05:49;9.93;;;4.63;;
25780;SDS011;13626;48.128;11.628;2024-01-15T05:08:16;8.35;;;4.45;;
25780;SDS011;13626;48.128;11.628;2024-01-15T05:10:43;8.90;;;4.07;;
25780;SDS011;13626;48.128;11.628;2024-01-15T05:13:11;9.63;;;4.85;;
25780;SDS011;13626;48.128;11.628;2024-01-15T05:15:38;10.20;;;4.43;;
25780;SDS011;13626;48.128;11.628;2024-01-15T05:18:06;9.75;;;4.43;;
25780;SDS011;13626;48.128;11.628;2024-01-15T05:20:33;8.27;;;4.03;;
25780;SDS011;13626;48.128;11.628;2024-01-15T05:23:01;9.70;;;4.65;;
25780;SDS011;13626;48.128;11.628;2024-01-15T05:25:28;9.93;;;4.30;;
25780;SDS011;13626;48.128;11.628;2024-01-15T05:27:55;9.68;;;4.68;;
25780;SDS011;13626;48.128;11.628;2024-01-15T05:30:23;8.35;;;4.18;;
25780;SDS011;13626;48.128;11.628;2024-01-15T05:32:51;9.80;;;4.07;;
25780;SDS011;13626;48.128;11.628;2024-01-15T05:35:18;10.75;;;4.40;;
25780;SDS011;13626;48.128;11.628;2024-01-15T05:37:45;9.15;;;4.13;;
25780;SDS011;13626;48.128;11.628;2024-01-15T05:40:13;9.45;;;4.00;;
25780;SDS011;13626;48.128;11.628;2024-01-15T05:42:41;9.50;;;4.20;;
25780;SDS011;13626;48.128;11.628;2024-01-15T05:45:08;10.65;;;4.22;;
25780;SDS011;13626;48.128;11.628;2024-01-15T05:47:36;9.07;;;4.57;;
25780;SDS011;13626;48.128;11.628;2024-01-15T05:50:04;9.65;;;4.40;;
25780;SDS011;13626;48.128;11.628;2024-01-15T05:52:31;7.82;;;3.70;;
25780;SDS011;13626;48.128;11.628;2024-01-15T05:54:58;10.35;;;4.28;;
25780;SDS011;13626;48.128;11.628;2024-01-15T05:57:26;9.55;;;4.63;;
25780;SDS011;13626;48.128;11.628;2024-01-15T05:59:54;10.43;;;4.28;;
25780;SDS011;13626;48.128;11.628;2024-01-15T06:02:21;7.53;;;3.67;;
25780;SDS011;13626;48.128;11.628;2024-01-15T06:04:48;9.82;;;4.63;;
25780;SDS011;13626;48.128;11.628;2024-01-15T06:07:16;8.98;;;4.47;;
25780;SDS011;13626;48.128;11.628;2024-01-15T06:09:44;10.38;;;3.78;;
25780;SDS011;13626;48.128;11.628;2024-01-15T06:12:12;10.77;;;4.30;;
25780;SDS011;13626;48.128;11.628;2024-01-15T06:14:39;9.07;;;4.53;;
25780;SDS011;13626;48.128;11.628;2024-01-15T06:17:07;10.40;;;4.05;;
25780;SDS011;13626;48.128;11.628;2024-01-15T06:19:35;9.18;;;4.47;;
25780;SDS011;13626;48.128;11.628;2024-01-15T06:22:03;8.38;;;3.70;;
25780;SDS011;13626;48.128;11.628;2024-01-15T06:24:30;8.90;;;4.28;;
25780;SDS011;13626;48.128;11.628;2024-01-15T06:26:57;10.18;;;4.32;;
25780;SDS011;13626;48.128;11.628;2024-01-15T06:29:25;9.00;;;4.75;;
25780;SDS011;13626;48.128;11.628;2024-01-15T06:31:53;8.80;;;4.30;;
25780;SDS011;13626;48.128;11.628;2024-01-15T06:34:21;9.32;;;4.05;;
25780;SDS011;13626;48.128;11.628;2024-01-15T06:36:48;7.32;;;4.00;;
25780;SDS011;13626;48.128;11.628;2024-01-15T06:39:16;10.43;;;4.55;;
25780;SDS011;13626;48.128;11.628;2024-01-15T06:41:43;7.43;;;3.85;;
25780;SDS011;13626;48.128;11.628;2024-01-15T06:44:10;10.75;;;4.63;;
25780;SDS011;13626;48.128;11.628;2024-01-15T06:46:47;9.00;;;4.15;;
25780;SDS011;13626;48.128;11.628;2024-01-15T06:49:14;7.53;;;3.92;;
25780;SDS011;13626;48.128;11.628;2024-01-15T06:51:41;7.22;;;4.13;;
25780;SDS011;13626;48.128;11.628;2024-01-15T06:54:12;9.93;;;4.63;;
25780;SDS011;13626;48.128;11.628;2024-01-15T06:56:39;7.38;;;4.05;;
25780;SDS011;13626;48.128;11.628;2024-01-15T06:59:07;8.05;;;3.90;;
25780;SDS011;13626;48.128;11.628;2024-01-15T07:01:34;6.32;;;3.58;;
25780;SDS011;13626;48.128;11.628;2024-01-15T07:04:01;8.95;;;3.90;;
25780;SDS011;13626;48.128;11.628;2024-01-15T07:06:29;6.97;;;3.97;;
25780;SDS011;13626;48.128;11.628;2024-01-15T07:08:57;9.30;;;4.15;;
25780;SDS011;13626;48.128;11.628;2024-01-15T07:11:24;11.30;;;4.35;;
25780;SDS011;13626;48.128;11.628;2024-01-15T07:13:51;8.20;;;4.30;;
25780;SDS011;13626;48.128;11.628;2024-01-15T07:16:19;9.65;;;4.15;;
25780;SDS011;13626;48.128;11.628;2024-01-15T07:19:02;9.80;;;4.95;;
25780;SDS011;13626;48.128;11.628;2024-01-15T07:21:30;8.60;;;4.25;;
25780;SDS011;13626;48.128;11.628;2024-01-15T07:23:58;8.48;;;4.30;;
25780;SDS011;13626;48.128;11.628;2024-01-15T07:26:26;8.23;;;4.13;;
25780;SDS011;13626;48.128;11.628;2024-01-15T07:28:57;10.20;;;3.92;;
25780;SDS011;13626;48.128;11.628;2024-01-15T07:31:25;9.18;;;4.30;;
25780;SDS011;13626;48.128;11.628;2024-01-15T07:33:52;8.52;;;4.40;;
25780;SDS011;13626;48.128;11.628;2024-01-15T07:36:19;12.27;;;4.25;;
25780;SDS011;13626;48.128;11.628;2024-01-15T07:38:47;11.48;;;4.80;;
25780;SDS011;13626;48.128;11.628;2024-01-15T07:41:14;11.23;;;4.70;;
25780;SDS011;13626;48.128;11.628;2024-01-15T07:43:41;11.10;;;4.75;;
25780;SDS011;13626;48.128;11.628;2024-01-15T07:46:09;12.93;;;4.97;;
25780;SDS011;13626;48.128;11.628;2024-01-15T07:48:36;9.77;;;5.10;;
25780;SDS011;13626;48.128;11.628;2024-01-15T07:51:04;8.90;;;4.50;;
25780;SDS011;13626;48.128;11.628;2024-01-15T07:53:31;9.25;;;4.22;;
25780;SDS011;13626;48.128;11.628;2024-01-15T07:55:59;9.07;;;4.82;;
25780;SDS011;13626;48.128;11.628;2024-01-15T07:58:26;9.57;;;4.20;;
25780;SDS011;13626;48.128;11.628;2024-01-15T08:00:53;9.93;;;4.57;;
25780;SDS011;13626;48.128;11.628;2024-01-15T08:03:21;10.95;;;4.85;;
25780;SDS011;13626;48.128;11.628;2024-01-15T08:05:48;9.73;;;4.63;;
25780;SDS011;13626;48.128;11.628;2024-01-15T08:08:18;9.20;;;4.88;;
25780;SDS011;13626;48.128;11.628;2024-01-15T08:10:47;10.23;;;5.25;;
25780;SDS011;13626;48.128;11.628;2024-01-15T08:13:14;10.05;;;4.60;;
25780;SDS011;13626;48.128;11.628;2024-01-15T08:15:42;11.50;;;5.03;;
25780;SDS011;13626;48.128;11.628;2024-01-15T08:18:09;8.02;;;4.35;;
25780;SDS011;13626;48.128;11.628;2024-01-15T08:20:37;9.88;;;5.18;;
25780;SDS011;13626;48.128;11.628;2024-01-15T08:23:04;10.05;;;4.53;;
25780;SDS011;13626;48.128;11.628;2024-01-15T08:25:31;10.70;;;4.90;;
25780;SDS011;13626;48.128;11.628;2024-01-15T08:27:59;10.05;;;4.35;;
25780;SDS011;13626;48.128;11.628;2024-01-15T08:30:26;10.45;;;4.38;;
25780;SDS011;13626;48.128;11.628;2024-01-15T08:32:54;9.35;;;4.85;;
25780;SDS011;13626;48.128;11.628;2024-01-15T08:35:25;6.22;;;3.83;;
25780;SDS011;13626;48.128;11.628;2024-01-15T08:37:52;10.15;;;5.13;;
25780;SDS011;13626;48.128;11.628;2024-01-15T08:40:20;9.40;;;4.95;;
25780;SDS011;13626;48.128;11.628;2024-01-15T08:42:47;8.68;;;4.22;;
25780;SDS011;13626;48.128;11.628;2024-01-15T08:45:15;10.00;;;4.03;;
25780;SDS011;13626;48.128;11.628;2024-01-15T08:47:42;10.65;;;4.47;;
25780;SDS011;13626;48.128;11.628;2024-01-15T08:50:10;10.85;;;4.38;;
25780;SDS011;13626;48.128;11.628;2024-01-15T08:52:37;7.13;;;3.95;;
25780;SDS011;13626;48.128;11.628;2024-01-15T08:55:04;9.60;;;4.07;;
25780;SDS011;13626;48.128;11.628;2024-01-15T08:57:33;7.30;;;3.97;;
25780;SDS011;13626;48.128;11.628;2024-01-15T09:00:00;11.13;;;4.45;;
25780;SDS011;13626;48.128;11.628;2024-01-15T09:02:27;14.18;;;4.57;;
25780;SDS011;13626;48.128;11.628;2024-01-15T09:04:55;12.10;;;4.18;;
25780;SDS011;13626;48.128;11.628;2024-01-15T09:07:22;8.95;;;4.45;;
25780;SDS011;13626;48.128;11.628;2024-01-15T09:09:51;7.75;;;4.40;;
25780;SDS011;13626;48.128;11.628;2024-01-15T09:12:19;9.45;;;4.35;;
25780;SDS011;13626;48.128;11.628;2024-01-15T09:14:48;9.50;;;4.85;;
25780;SDS011;13626;48.128;11.628;2024-01-15T09:17:16;9.45;;;4.60;;
25780;SDS011;13626;48.128;11.628;2024-01-15T09:19:44;8.68;;;4.43;;
25780;SDS011;13626;48.128;11.628;2024-01-15T09:22:12;8.32;;;5.00;;
25780;SDS011;13626;48.128;11.628;2024-01-15T09:24:41;8.77;;;4.07;;
25780;SDS011;13626;48.128;11.628;2024-01-15T09:27:08;11.57;;;4.18;;
25780;SDS011;13626;48.128;11.628;2024-01-15T09:29:35;9.18;;;4.45;;
25780;SDS011;13626;48.128;11.628;2024-01-15T09:32:06;9.20;;;4.53;;
25780;SDS011;13626;48.128;11.628;2024-01-15T09:34:34;12.45;;;5.07;;
25780;SDS011;13626;48.128;11.628;2024-01-15T09:37:02;9.75;;;4.60;;
25780;SDS011;13626;48.128;11.628;2024-01-15T09:39:30;10.40;;;4.45;;
25780;SDS011;13626;48.128;11.628;2024-01-15T09:41:58;8.57;;;4.38;;
25780;SDS011;13626;48.128;11.628;2024-01-15T09:44:25;9.05;;;4.30;;
25780;SDS011;13626;48.128;11.628;2024-01-15T09:46:55;8.27;;;4.10;;
25780;SDS011;13626;48.128;11.628;2024-01-15T09:49:22;9.15;;;4.05;;
25780;SDS011;13626;48.128;11.628;2024-01-15T09:51:50;7.82;;;3.92;;
25780;SDS011;13626;48.128;11.628;2024-01-15T09:54:31;8.23;;;4.20;;
25780;SDS011;13626;48.128;11.628;2024-01-15T09:57:01;9.45;;;4.18;;
25780;SDS011;13626;48.128;11.628;2024-01-15T09:59:28;9.55;;;4.40;;
25780;SDS011;13626;48.128;11.628;2024-01-15T10:01:56;8.13;;;4.20;;
25780;SDS011;13626;48.128;11.628;2024-01-15T10:04:25;6.40;;;3.20;;
25780;SDS011;13626;48.128;11.628;2024-01-15T10:06:53;10.10;;;3.80;;
25780;SDS011;13626;48.128;11.628;2024-01-15T10:09:21;6.65;;;3.65;;
25780;SDS011;13626;48.128;11.628;2024-01-15T10:11:49;12.60;;;3.80;;
25780;SDS011;13626;48.128;11.628;2024-01-15T10:14:16;7.50;;;3.28;;
25780;SDS011;13626;48.128;11.628;2024-01-15T10:16:43;5.82;;;3.35;;
25780;SDS011;13626;48.128;11.628;2024-01-15T10:19:11;6.95;;;3.35;;
25780;SDS011;13626;48.128;11.628;2024-01-15T10:21:38;5.65;;;3.42;;
25780;SDS011;13626;48.128;11.628;2024-01-15T10:24:06;7.05;;;3.53;;
25780;SDS011;13626;48.128;11.628;2024-01-15T10:26:34;8.05;;;3.72;;
25780;SDS011;13626;48.128;11.628;2024-01-15T10:29:01;6.32;;;3.53;;
25780;SDS011;13626;48.128;11.628;2024-01-15T10:31:28;11.35;;;3.60;;
25780;SDS011;13626;48.128;11.628;2024-01-15T10:34:12;7.78;;;3.72;;
25780;SDS011;13626;48.128;11.628;2024-01-15T10:36:44;5.78;;;3.03;;
25780;SDS011;13626;48.128;11.628;2024-01-15T10:39:14;5.53;;;2.90;;
25780;SDS011;13626;48.128;11.628;2024-01-15T10:41:42;7.40;;;3.20;;
25780;SDS011;13626;48.128;11.628;2024-01-15T10:44:10;5.53;;;2.70;;
25780;SDS011;13626;48.128;11.628;2024-01-15T10:46:38;6.88;;;2.80;;
25780;SDS011;13626;48.128;11.628;2024-01-15T10:49:05;7.95;;;3.08;;
25780;SDS011;13626;48.128;11.628;2024-01-15T10:51:33;7.28;;;3.28;;
25780;SDS011;13626;48.128;11.628;2024-01-15T10:54:00;6.75;;;2.88;;
25780;SDS011;13626;48.128;11.628;2024-01-15T10:56:28;4.55;;;2.75;;
25780;SDS011;13626;48.128;11.628;2024-01-15T10:58:57;6.07;;;2.83;;
25780;SDS011;13626;48.128;11.628;2024-01-15T11:01:26;7.07;;;2.45;;
25780;SDS011;13626;48.128;11.628;2024-01-15T11:03:56;8.98;;;3.10;;
25780;SDS011;13626;48.128;11.628;2024-01-15T11:06:24;4.53;;;2.63;;
25780;SDS011;13626;48.128;11.628;2024-01-15T11:08:52;4.45;;;2.78;;
25780;SDS011;13626;48.128;11.628;2024-01-15T11:11:20;7.05;;;3.05;;
25780;SDS011;13626;48.128;11.628;2024-01-15T11:13:48;4.93;;;2.67;;
25780;SDS011;13626;48.128;11.628;2024-01-15T11:16:18;5.75;;;2.75;;
25780;SDS011;13626;48.128;11.628;2024-01-15T11:21:25;6.32;;;3.30;;
25780;SDS011;13626;48.128;11.628;2024-01-15T11:23:55;5.00;;;2.80;;
25780;SDS011;13626;48.128;11.628;2024-01-15T11:29:01;3.40;;;2.30;;
25780;SDS011;13626;48.128;11.628;2024-01-15T11:31:30;5.20;;;2.85;;
25780;SDS011;13626;48.128;11.628;2024-01-15T11:34:17;4.85;;;2.70;;
25780;SDS011;13626;48.128;11.628;2024-01-15T11:41:55;5.60;;;2.42;;
25780;SDS011;13626;48.128;11.628;2024-01-15T11:44:22;3.33;;;2.22;;
25780;SDS011;13626;48.128;11.628;2024-01-15T11:52:13;5.82;;;2.85;;
25780;SDS011;13626;48.128;11.628;2024-01-15T11:55:29;3.97;;;2.25;;
25780;SDS011;13626;48.128;11.628;2024-01-15T11:57:40;3.45;;;2.38;;
25780;SDS011;13626;48.128;11.628;2024-01-15T12:00:09;5.18;;;2.60;;
25780;SDS011;13626;48.128;11.628;2024-01-15T12:02:39;3.63;;;2.53;;
25780;SDS011;13626;48.128;11.628;2024-01-15T12:05:08;6.38;;;2.70;;
25780;SDS011;13626;48.128;11.628;2024-01-15T12:07:35;5.93;;;2.83;;
25780;SDS011;13626;48.128;11.628;2024-01-15T12:10:02;4.63;;;2.38;;
25780;SDS011;13626;48.128;11.628;2024-01-15T12:15:29;4.50;;;2.63;;
25780;SDS011;13626;48.128;11.628;2024-01-15T12:18:00;4.00;;;2.20;;
25780;SDS011;13626;48.128;11.628;2024-01-15T12:20:29;4.70;;;2.47;;
25780;SDS011;13626;48.128;11.628;2024-01-15T12:22:56;3.42;;;1.90;;
25780;SDS011;13626;48.128;11.628;2024-01-15T12:25:29;4.15;;;2.40;;
25780;SDS011;13626;48.128;11.628;2024-01-15T12:27:57;7.57;;;2.38;;
25780;SDS011;13626;48.128;11.628;2024-01-15T12:30:28;2.55;;;1.65;;
25780;SDS011;13626;48.128;11.628;2024-01-15T12:32:58;3.90;;;2.30;;
25780;SDS011;13626;48.128;11.628;2024-01-15T12:35:29;5.00;;;2.22;;
25780;SDS011;13626;48.128;11.628;2024-01-15T12:37:56;3.45;;;2.13;;
25780;SDS011;13626;48.128;11.628;2024-01-15T12:40:24;2.70;;;1.80;;
25780;SDS011;13626;48.128;11.628;2024-01-15T12:42:51;7.05;;;1.90;;
25780;SDS011;13626;48.128;11.628;2024-01-15T12:45:18;3.50;;;2.03;;
25780;SDS011;13626;48.128;11.628;2024-01-15T12:47:46;3.28;;;2.10;;
25780;SDS011;13626;48.128;11.628;2024-01-15T12:50:14;3.35;;;1.88;;
25780;SDS011;13626;48.128;11.628;2024-01-15T12:52:46;4.22;;;1.95;;
25780;SDS011;13626;48.128;11.628;2024-01-15T12:55:13;3.83;;;2.10;;
25780;SDS011;13626;48.128;11.628;2024-01-15T12:57:42;3.80;;;2.10;;
25780;SDS011;13626;48.128;11.628;2024-01-15T13:00:09;3.08;;;1.98;;
25780;SDS011;13626;48.128;11.628;2024-01-15T13:02:44;4.07;;;2.17;;
25780;SDS011;13626;48.128;11.628;2024-01-15T13:05:24;3.28;;;1.90;;
25780;SDS011;13626;48.128;11.628;2024-01-15T13:07:53;2.95;;;1.67;;
25780;SDS011;13626;48.128;11.628;2024-01-15T13:10:22;3.35;;;1.67;;
25780;SDS011;13626;48.128;11.628;2024-01-15T13:12:52;3.75;;;2.03;;
25780;SDS011;13626;48.128;11.628;2024-01-15T13:15:19;3.78;;;2.20;;
25780;SDS011;13626;48.128;11.628;2024-01-15T13:17:46;3.42;;;1.95;;
25780;SDS011;13626;48.128;11.628;2024-01-15T13:20:14;3.75;;;2.28;;
25780;SDS011;13626;48.128;11.628;2024-01-15T13:22:41;4.35;;;2.28;;
25780;SDS011;13626;48.128;11.628;2024-01-15T13:25:11;5.25;;;2.53;;
25780;SDS011;13626;48.128;11.628;2024-01-15T13:27:38;5.03;;;2.50;;
25780;SDS011;13626;48.128;11.628;2024-01-15T13:30:08;4.95;;;2.67;;
25780;SDS011;13626;48.128;11.628;2024-01-15T13:32:35;4.65;;;2.63;;
25780;SDS011;13626;48.128;11.628;2024-01-15T13:35:03;3.88;;;2.45;;
25780;SDS011;13626;48.128;11.628;2024-01-15T13:37:34;5.45;;;2.75;;
25780;SDS011;13626;48.128;11.628;2024-01-15T13:40:03;5.82;;;2.42;;
25780;SDS011;13626;48.128;11.628;2024-01-15T13:42:31;4.22;;;2.45;;
25780;SDS011;13626;48.128;11.628;2024-01-15T13:45:00;4.75;;;2.42;;
25780;SDS011;13626;48.128;11.628;2024-01-15T13:47:29;5.22;;;2.90;;
25780;SDS011;13626;48.128;11.628;2024-01-15T13:49:57;3.67;;;2.70;;
25780;SDS011;13626;48.128;11.628;2024-01-15T13:52:25;4.53;;;2.78;;
25780;SDS011;13626;48.128;11.628;2024-01-15T13:54:54;3.90;;;2.13;;
25780;SDS011;13626;48.128;11.628;2024-01-15T13:57:21;4.60;;;2.60;;
25780;SDS011;13626;48.128;11.628;2024-01-15T13:59:49;4.25;;;2.70;;
25780;SDS011;13626;48.128;11.628;2024-01-15T14:02:16;4.57;;;2.90;;
25780;SDS011;13626;48.128;11.628;2024-01-15T14:04:47;5.63;;;2.78;;
25780;SDS011;13626;48.128;11.628;2024-01-15T14:07:16;5.45;;;2.70;;
25780;SDS011;13626;48.128;11.628;2024-01-15T14:09:43;4.70;;;2.72;;
25780;SDS011;13626;48.128;11.628;2024-01-15T14:12:11;4.70;;;2.60;;
25780;SDS011;13626;48.128;11.628;2024-01-15T14:14:38;6.70;;;2.70;;
25780;SDS011;13626;48.128;11.628;2024-01-15T14:17:06;4.65;;;3.10;;
25780;SDS011;13626;48.128;11.628;2024-01-15T14:19:34;7.15;;;3.15;;
25780;SDS011;13626;48.128;11.628;2024-01-15T14:22:02;5.15;;;2.65;;
25780;SDS011;13626;48.128;11.628;2024-01-15T14:24:29;5.78;;;2.67;;
25780;SDS011;13626;48.128;11.628;2024-01-15T14:26:57;5.47;;;2.83;;
25780;SDS011;13626;48.128;11.628;2024-01-15T14:29:25;5.45;;;3.03;;
25780;SDS011;13626;48.128;11.628;2024-01-15T14:31:53;4.55;;;2.90;;
25780;SDS011;13626;48.128;11.628;2024-01-15T14:34:20;5.28;;;2.50;;
25780;SDS011;13626;48.128;11.628;2024-01-15T14:36:50;9.32;;;2.92;;
25780;SDS011;13626;48.128;11.628;2024-01-15T14:39:24;4.03;;;2.50;;
25780;SDS011;13626;48.128;11.628;2024-01-15T14:41:52;7.80;;;2.80;;
25780;SDS011;13626;48.128;11.628;2024-01-15T14:44:19;6.68;;;2.95;;
25780;SDS011;13626;48.128;11.628;2024-01-15T14:46:47;6.43;;;3.05;;
25780;SDS011;13626;48.128;11.628;2024-01-15T14:49:15;6.63;;;2.92;;
25780;SDS011;13626;48.128;11.628;2024-01-15T14:51:44;6.72;;;2.78;;